createdAt,value
2023-05-21T00:00:58.696Z,19.75
2023-05-21T00:03:28.687Z,20.35
2023-05-21T00:05:57.056Z,19.60
2023-05-21T00:08:25.485Z,19.63
2023-05-21T00:10:54.122Z,19.83
2023-05-21T00:13:22.273Z,18.55
2023-05-21T00:15:50.616Z,19.70
2023-05-21T00:18:20.129Z,19.67
2023-05-21T00:20:48.513Z,19.58
2023-05-21T00:23:18.574Z,18.77
2023-05-21T00:25:47.336Z,20.23
2023-05-21T00:28:15.664Z,19.13
2023-05-21T00:30:45.827Z,18.88
2023-05-21T00:33:13.917Z,19.15
2023-05-21T00:35:45.008Z,20.17
2023-05-21T00:38:14.478Z,20.48
2023-05-21T00:40:42.904Z,19.70
2023-05-21T00:43:11.181Z,18.95
2023-05-21T00:45:41.342Z,21.35
2023-05-21T00:48:10.610Z,20.60
2023-05-21T00:50:42.053Z,20.38
2023-05-21T00:53:12.604Z,20.23
2023-05-21T00:55:41.091Z,19.58
2023-05-21T00:58:09.298Z,22.25
2023-05-21T01:00:40.577Z,20.95
2023-05-21T01:03:09.862Z,20.73
2023-05-21T01:05:39.455Z,21.58
2023-05-21T01:08:07.691Z,19.95
2023-05-21T01:10:38.798Z,22.20
2023-05-21T01:13:07.392Z,21.67
2023-05-21T01:15:38.407Z,20.63
2023-05-21T01:18:07.801Z,22.15
2023-05-21T01:20:37.728Z,21.85
2023-05-21T01:23:07.963Z,22.73
2023-05-21T01:25:36.742Z,23.10
2023-05-21T01:28:06.038Z,22.15
2023-05-21T01:30:34.535Z,23.02
2023-05-21T01:33:05.963Z,23.48
2023-05-21T01:35:39.750Z,23.13
2023-05-21T01:38:13.886Z,22.33
2023-05-21T01:40:47.331Z,23.27
2023-05-21T01:43:16.147Z,23.48
2023-05-21T01:45:46.693Z,23.20
2023-05-21T01:48:15.077Z,23.73
2023-05-21T01:50:45.406Z,24.58
2023-05-21T01:53:17.469Z,24.52
2023-05-21T01:55:46.023Z,24.33
2023-05-21T01:58:16.756Z,25.13
2023-05-21T02:00:47.018Z,25.10
2023-05-21T02:03:16.593Z,24.80
2023-05-21T02:05:45.737Z,24.52
2023-05-21T02:08:15.938Z,26.20
2023-05-21T02:10:58.581Z,24.70
2023-05-21T02:13:29.189Z,26.77
2023-05-21T02:15:57.445Z,25.45
2023-05-21T02:18:26.442Z,26.15
2023-05-21T02:20:54.553Z,27.15
2023-05-21T02:23:24.337Z,27.80
2023-05-21T02:25:52.697Z,29.25
2023-05-21T02:28:21.382Z,26.70
2023-05-21T02:30:50.741Z,27.52
2023-05-21T02:33:20.260Z,28.52
2023-05-21T02:35:48.817Z,27.17
2023-05-21T02:38:19.637Z,27.55
2023-05-21T02:40:49.729Z,26.30
2023-05-21T02:43:21.325Z,27.13
2023-05-21T02:45:51.465Z,26.17
2023-05-21T02:48:19.974Z,27.40
2023-05-21T02:50:48.220Z,28.25
2023-05-21T02:53:16.572Z,28.23
2023-05-21T02:55:44.727Z,28.23
2023-05-21T02:58:15.486Z,28.95
2023-05-21T03:00:43.563Z,27.77
2023-05-21T03:03:12.726Z,27.92
2023-05-21T03:05:41.628Z,29.65
2023-05-21T03:08:10.005Z,28.67
2023-05-21T03:10:38.124Z,27.98
2023-05-21T03:13:09.556Z,28.95
2023-05-21T03:15:39.821Z,28.47
2023-05-21T03:18:08.419Z,28.65
2023-05-21T03:20:43.862Z,29.88
2023-05-21T03:23:16.900Z,28.95
2023-05-21T03:25:47.385Z,28.83
2023-05-21T03:28:15.915Z,29.42
2023-05-21T03:30:46.958Z,29.90
2023-05-21T03:33:15.647Z,28.45
2023-05-21T03:35:45.035Z,28.02
2023-05-21T03:38:13.776Z,29.10
2023-05-21T03:40:43.276Z,28.50
2023-05-21T03:43:13.437Z,28.17
2023-05-21T03:45:44.203Z,27.52
2023-05-21T03:48:15.033Z,27.95
2023-05-21T03:50:43.414Z,27.27
2023-05-21T03:53:12.651Z,28.38
2023-05-21T03:55:41.142Z,28.17
2023-05-21T03:58:09.731Z,27.52
2023-05-21T04:00:39.041Z,26.75
2023-05-21T04:03:07.980Z,26.55
2023-05-21T04:05:38.427Z,27.02
2023-05-21T04:08:07.457Z,25.75
2023-05-21T04:10:35.722Z,25.80
2023-05-21T04:13:09.104Z,25.98
2023-05-21T04:18:08.483Z,25.15
2023-05-21T04:20:38.095Z,24.15
2023-05-21T04:23:06.936Z,24.98
2023-05-21T04:25:35.572Z,24.42
2023-05-21T04:28:05.686Z,25.10
2023-05-21T04:30:35.611Z,24.95
2023-05-21T04:33:04.289Z,23.73
2023-05-21T04:35:32.668Z,23.17
2023-05-21T04:38:05.605Z,22.85
2023-05-21T04:40:33.974Z,24.23
2023-05-21T04:43:05.833Z,23.77
2023-05-21T04:45:35.380Z,23.20
2023-05-21T04:48:05.225Z,23.25
2023-05-21T04:50:35.824Z,23.30
2023-05-21T04:53:05.567Z,24.63
2023-05-21T04:55:39.785Z,23.92
2023-05-21T04:58:11.028Z,25.02
2023-05-21T05:00:39.445Z,23.42
2023-05-21T05:03:08.332Z,23.20
2023-05-21T05:05:37.235Z,23.23
2023-05-21T05:08:13.857Z,24.90
2023-05-21T05:10:44.454Z,23.88
2023-05-21T05:13:12.774Z,24.40
2023-05-21T05:15:42.040Z,24.30
2023-05-21T05:18:12.022Z,25.40
2023-05-21T05:20:42.789Z,23.75
2023-05-21T05:23:13.466Z,23.90
2023-05-21T05:25:41.564Z,24.52
2023-05-21T05:28:10.814Z,25.27
2023-05-21T05:30:40.470Z,23.27
2023-05-21T05:33:08.854Z,23.30
2023-05-21T05:35:37.531Z,23.88
2023-05-21T05:38:09.647Z,25.05
2023-05-21T05:40:39.598Z,23.33
2023-05-21T05:43:07.975Z,24.63
2023-05-21T05:45:38.772Z,25.23
2023-05-21T05:48:08.948Z,24.98
2023-05-21T05:50:37.761Z,25.13
2023-05-21T05:53:09.800Z,25.10
2023-05-21T05:55:39.748Z,24.05
2023-05-21T05:58:08.350Z,24.65
2023-05-21T06:00:38.237Z,26.00
2023-05-21T06:03:08.048Z,25.70
2023-05-21T06:05:38.280Z,25.83
2023-05-21T06:08:09.257Z,25.63
2023-05-21T06:10:38.785Z,25.85
2023-05-21T06:13:07.238Z,24.20
2023-05-21T06:15:36.185Z,24.83
2023-05-21T06:18:05.628Z,25.02
2023-05-21T06:20:33.766Z,25.17
2023-05-21T06:23:02.102Z,22.77
2023-05-21T06:25:30.473Z,23.55
2023-05-21T06:28:01.688Z,23.48
2023-05-21T06:30:31.834Z,22.83
2023-05-21T06:33:02.999Z,21.98
2023-05-21T06:35:31.107Z,22.13
2023-05-21T06:37:59.659Z,23.52
2023-05-21T06:40:27.999Z,21.50
2023-05-21T06:42:56.866Z,21.58
2023-05-21T06:45:27.063Z,20.63
2023-05-21T06:47:55.440Z,20.50
2023-05-21T06:50:25.331Z,19.92
2023-05-21T06:52:53.891Z,19.52
2023-05-21T06:55:24.852Z,20.55
2023-05-21T06:57:52.976Z,18.98
2023-05-21T07:00:25.739Z,18.65
2023-05-21T07:02:56.363Z,19.13
2023-05-21T07:05:24.726Z,18.42
2023-05-21T07:07:54.234Z,18.90
2023-05-21T07:10:25.331Z,18.70
2023-05-21T07:12:54.418Z,18.33
2023-05-21T07:15:22.846Z,17.42
2023-05-21T07:17:51.739Z,16.63
2023-05-21T07:20:29.604Z,18.20
2023-05-21T07:22:59.624Z,17.45
2023-05-21T07:25:28.477Z,17.35
2023-05-21T07:27:57.188Z,18.60
2023-05-21T07:30:25.512Z,18.35
2023-05-21T07:32:54.264Z,18.90
2023-05-21T07:35:24.011Z,17.77
2023-05-21T07:37:53.038Z,17.83
2023-05-21T07:40:21.647Z,18.38
2023-05-21T07:42:50.639Z,18.77
2023-05-21T07:45:22.862Z,18.42
2023-05-21T07:47:50.981Z,17.80
2023-05-21T07:50:19.531Z,18.35
2023-05-21T07:52:51.704Z,17.00
2023-05-21T07:55:19.841Z,17.75
2023-05-21T07:57:49.636Z,17.63
2023-05-21T08:00:19.887Z,17.20
2023-05-21T08:02:48.207Z,17.17
2023-05-21T08:05:17.420Z,16.48
2023-05-21T08:07:47.087Z,15.88
2023-05-21T08:10:19.220Z,15.73
2023-05-21T08:12:48.011Z,17.00
2023-05-21T08:15:17.531Z,15.57
2023-05-21T08:17:46.229Z,15.75
2023-05-21T08:20:15.918Z,15.77
2023-05-21T08:22:44.976Z,15.63
2023-05-21T08:25:13.306Z,14.65
2023-05-21T08:27:45.792Z,14.85
2023-05-21T08:30:14.699Z,15.25
2023-05-21T08:32:43.537Z,14.85
2023-05-21T08:35:13.116Z,15.00
2023-05-21T08:37:41.692Z,13.43
2023-05-21T08:40:12.399Z,15.43
2023-05-21T08:42:47.344Z,14.20
2023-05-21T08:45:22.339Z,16.00
2023-05-21T08:47:57.024Z,14.65
2023-05-21T08:50:28.142Z,14.82
2023-05-21T08:52:56.572Z,13.13
2023-05-21T08:55:25.243Z,14.18
2023-05-21T08:57:56.304Z,15.07
2023-05-21T09:00:25.515Z,12.77
2023-05-21T09:02:54.708Z,13.43
2023-05-21T09:05:27.111Z,13.60
2023-05-21T09:08:05.598Z,14.40
2023-05-21T09:10:40.049Z,13.57
2023-05-21T09:13:11.382Z,12.65
2023-05-21T09:15:39.901Z,12.60
2023-05-21T09:18:08.152Z,13.65
2023-05-21T09:20:36.488Z,12.88
2023-05-21T09:23:07.184Z,12.80
2023-05-21T09:25:39.856Z,13.02
2023-05-21T09:28:16.160Z,13.52
2023-05-21T09:30:50.263Z,12.90
2023-05-21T09:33:26.197Z,12.75
2023-05-21T09:35:55.038Z,13.45
2023-05-21T09:38:23.791Z,13.18
2023-05-21T09:40:52.283Z,12.55
2023-05-21T09:43:22.778Z,12.90
2023-05-21T09:45:54.214Z,11.63
2023-05-21T09:48:37.477Z,12.77
2023-05-21T09:51:16.810Z,11.95
2023-05-21T09:53:55.124Z,11.73
2023-05-21T09:56:24.811Z,10.45
2023-05-21T09:59:00.357Z,10.48
2023-05-21T10:01:29.883Z,10.02
2023-05-21T10:03:59.591Z,9.60
2023-05-21T10:06:32.520Z,9.55
2023-05-21T10:09:05.817Z,8.52
2023-05-21T10:11:35.223Z,8.77
2023-05-21T10:14:08.475Z,7.97
2023-05-21T10:16:40.876Z,8.93
2023-05-21T10:19:13.926Z,8.63
2023-05-21T10:21:43.270Z,7.75
2023-05-21T10:24:12.573Z,7.65
2023-05-21T10:26:43.046Z,7.63
2023-05-21T10:29:18.886Z,7.47
2023-05-21T10:31:50.044Z,6.82
2023-05-21T10:34:18.754Z,7.25
2023-05-21T10:36:48.136Z,7.38
2023-05-21T10:39:19.591Z,7.35
2023-05-21T10:41:55.066Z,7.20
2023-05-21T10:44:34.445Z,6.57
2023-05-21T10:47:22.126Z,6.95
2023-05-21T10:50:05.280Z,6.28
2023-05-21T10:52:46.366Z,6.43
2023-05-21T10:55:27.278Z,6.13
2023-05-21T10:58:18.861Z,7.10
2023-05-21T11:00:48.715Z,6.38
2023-05-21T11:03:19.600Z,7.10
2023-05-21T11:05:54.173Z,6.68
2023-05-21T11:08:24.124Z,6.75
2023-05-21T11:10:54.695Z,6.93
2023-05-21T11:13:23.859Z,7.25
2023-05-21T11:16:12.488Z,6.22
2023-05-21T11:18:58.996Z,6.63
2023-05-21T11:21:33.848Z,6.63
2023-05-21T11:24:08.584Z,6.63
2023-05-21T11:27:05.071Z,6.13
2023-05-21T11:29:40.502Z,6.10
2023-05-21T11:32:12.563Z,5.93
2023-05-21T11:34:44.078Z,6.55
2023-05-21T11:37:31.879Z,5.78
2023-05-21T11:40:18.625Z,6.32
2023-05-21T11:42:53.403Z,6.55
2023-05-21T11:45:22.636Z,6.40
2023-05-21T11:47:54.641Z,6.38
2023-05-21T11:50:27.693Z,5.50
2023-05-21T11:55:28.531Z,5.50
2023-05-21T11:57:57.146Z,5.50
2023-05-21T12:00:26.276Z,6.10
2023-05-21T12:03:08.714Z,5.93
2023-05-21T12:05:46.929Z,6.05
2023-05-21T12:08:17.830Z,5.60
2023-05-21T12:10:46.445Z,5.72
2023-05-21T12:13:16.375Z,6.28
2023-05-21T12:15:46.678Z,6.28
2023-05-21T12:18:20.221Z,6.07
2023-05-21T12:20:49.410Z,5.70
2023-05-21T12:23:21.883Z,6.07
2023-05-21T12:25:51.809Z,5.78
2023-05-21T12:28:21.495Z,5.78
2023-05-21T12:30:49.967Z,6.70
2023-05-21T12:33:23.762Z,5.75
2023-05-21T12:35:55.390Z,6.10
2023-05-21T12:38:25.566Z,6.03
2023-05-21T12:40:54.953Z,6.20
2023-05-21T12:43:26.159Z,5.45
2023-05-21T12:45:55.022Z,5.82
2023-05-21T12:48:24.889Z,5.82
2023-05-21T12:50:53.121Z,6.63
2023-05-21T12:53:21.888Z,5.78
2023-05-21T12:55:51.240Z,5.80
2023-05-21T12:58:23.060Z,6.18
2023-05-21T13:00:51.224Z,6.60
2023-05-21T13:03:21.612Z,5.63
2023-05-21T13:06:00.080Z,6.00
2023-05-21T13:08:30.168Z,6.15
2023-05-21T13:10:58.294Z,5.78
2023-05-21T13:13:26.556Z,5.47
2023-05-21T13:15:58.023Z,6.47
2023-05-21T13:18:26.796Z,5.97
2023-05-21T13:20:55.028Z,6.35
2023-05-21T13:23:26.705Z,5.38
2023-05-21T13:25:54.727Z,20.83
2023-05-21T13:28:23.738Z,11.02
2023-05-21T13:30:55.207Z,5.78
2023-05-21T13:33:23.440Z,6.13
2023-05-21T13:35:52.687Z,7.00
2023-05-21T13:38:20.955Z,5.75
2023-05-21T13:40:51.767Z,5.90
2023-05-21T13:43:21.205Z,5.80
2023-05-21T13:45:49.986Z,6.00
2023-05-21T13:48:18.210Z,6.00
2023-05-21T13:50:46.777Z,6.18
2023-05-21T13:53:15.208Z,5.85
2023-05-21T13:55:44.181Z,6.20
2023-05-21T13:58:14.971Z,5.90
2023-05-21T14:00:43.151Z,5.15
2023-05-21T14:03:11.759Z,5.72
2023-05-21T14:05:40.093Z,5.97
2023-05-21T14:08:08.458Z,5.28
2023-05-21T14:10:36.729Z,5.70
2023-05-21T14:13:18.234Z,5.43
2023-05-21T14:15:49.468Z,5.57
2023-05-21T14:18:17.701Z,5.57
2023-05-21T14:20:46.397Z,5.63
2023-05-21T14:23:14.678Z,5.50
2023-05-21T14:25:43.394Z,6.00
2023-05-21T14:28:11.493Z,6.45
2023-05-21T14:30:39.987Z,5.50
2023-05-21T14:33:10.020Z,5.78
2023-05-21T14:35:38.756Z,44.13
2023-05-21T14:38:09.722Z,9.10
2023-05-21T14:40:43.342Z,6.25
2023-05-21T14:43:20.382Z,5.78
2023-05-21T14:45:50.679Z,5.80
2023-05-21T14:48:23.949Z,5.63
2023-05-21T14:50:52.699Z,6.05
2023-05-21T14:53:23.297Z,6.07
2023-05-21T14:55:55.232Z,6.28
2023-05-21T14:58:25.783Z,5.53
2023-05-21T15:00:56.115Z,5.60
2023-05-21T15:03:25.971Z,6.57
2023-05-21T15:05:54.240Z,5.95
2023-05-21T15:08:23.323Z,5.32
2023-05-21T15:10:51.661Z,5.95
2023-05-21T15:13:21.274Z,5.53
2023-05-21T15:15:50.180Z,6.28
2023-05-21T15:18:21.425Z,5.60
2023-05-21T15:20:51.159Z,6.07
2023-05-21T15:23:19.975Z,6.13
2023-05-21T15:25:48.648Z,7.03
2023-05-21T15:28:17.926Z,6.65
2023-05-21T15:30:46.605Z,6.82
2023-05-21T15:33:14.913Z,6.18
2023-05-21T15:35:44.124Z,6.55
2023-05-21T15:38:16.164Z,5.90
2023-05-21T15:40:44.830Z,5.60
2023-05-21T15:43:12.856Z,6.25
2023-05-21T15:45:44.147Z,6.20
2023-05-21T15:48:14.514Z,5.47
2023-05-21T15:50:44.034Z,5.60
2023-05-21T15:53:16.428Z,5.70
2023-05-21T15:55:44.818Z,6.43
2023-05-21T15:58:13.370Z,5.80
2023-05-21T16:00:42.177Z,5.40
2023-05-21T16:03:12.631Z,6.18
2023-05-21T16:05:41.490Z,6.00
2023-05-21T16:08:12.249Z,5.60
2023-05-21T16:10:45.933Z,6.00
2023-05-21T16:13:16.504Z,5.50
2023-05-21T16:15:45.024Z,5.72
2023-05-21T16:18:13.478Z,8.13
2023-05-21T16:20:43.876Z,9.38
2023-05-21T16:23:12.832Z,9.35
2023-05-21T16:25:42.962Z,7.45
2023-05-21T16:28:12.442Z,6.13
2023-05-21T16:30:40.883Z,5.45
2023-05-21T16:33:09.960Z,5.90
2023-05-21T16:35:38.604Z,5.90
2023-05-21T16:38:07.665Z,5.63
2023-05-21T16:40:38.758Z,5.45
2023-05-21T16:43:10.363Z,5.93
2023-05-21T16:45:42.287Z,5.50
2023-05-21T16:48:13.445Z,5.13
2023-05-21T16:50:44.229Z,5.38
2023-05-21T16:53:15.275Z,5.28
2023-05-21T16:55:43.378Z,4.75
2023-05-21T16:58:13.614Z,7.32
2023-05-21T17:00:43.213Z,5.68
2023-05-21T17:03:13.316Z,5.93
2023-05-21T17:05:44.369Z,5.13
2023-05-21T17:08:13.745Z,5.03
2023-05-21T17:10:43.944Z,5.25
2023-05-21T17:13:21.354Z,5.90
2023-05-21T17:15:52.030Z,4.97
2023-05-21T17:18:21.522Z,4.72
2023-05-21T17:20:50.330Z,4.40
2023-05-21T17:23:18.505Z,5.00
2023-05-21T17:25:47.488Z,4.65
2023-05-21T17:28:20.066Z,5.40
2023-05-21T17:30:49.667Z,4.75
2023-05-21T17:33:18.353Z,4.35
2023-05-21T17:35:54.222Z,4.95
2023-05-21T17:38:24.064Z,5.07
2023-05-21T17:40:53.630Z,4.88
2023-05-21T17:43:23.073Z,4.55
2023-05-21T17:45:51.274Z,4.90
2023-05-21T17:48:19.622Z,5.03
2023-05-21T17:50:49.929Z,4.43
2023-05-21T17:53:18.630Z,4.70
2023-05-21T17:55:48.875Z,5.05
2023-05-21T17:58:17.155Z,4.95
2023-05-21T18:01:00.902Z,5.18
2023-05-21T18:03:30.466Z,4.95
2023-05-21T18:06:09.375Z,5.60
2023-05-21T18:08:38.214Z,4.70
2023-05-21T18:11:07.605Z,4.75
2023-05-21T18:13:36.110Z,4.20
2023-05-21T18:16:06.326Z,4.65
2023-05-21T18:18:36.479Z,4.70
2023-05-21T18:21:05.380Z,5.00
2023-05-21T18:23:33.773Z,5.00
2023-05-21T18:26:02.702Z,4.53
2023-05-21T18:28:33.568Z,4.50
2023-05-21T18:31:18.208Z,4.75
2023-05-21T18:33:50.768Z,4.45
2023-05-21T18:36:23.229Z,4.47
2023-05-21T18:38:52.531Z,4.43
2023-05-21T18:41:22.436Z,4.68
2023-05-21T18:43:52.384Z,4.97
2023-05-21T18:46:22.189Z,5.20
2023-05-21T18:48:50.439Z,4.78
2023-05-21T18:51:19.876Z,16.17
2023-05-21T18:53:47.967Z,5.28
2023-05-21T18:56:16.528Z,5.15
2023-05-21T18:58:47.600Z,5.03
2023-05-21T19:01:16.354Z,5.22
2023-05-21T19:03:46.318Z,4.72
2023-05-21T19:06:17.540Z,4.53
2023-05-21T19:08:48.174Z,4.90
2023-05-21T19:11:19.006Z,4.68
2023-05-21T19:13:47.897Z,5.05
2023-05-21T19:16:16.178Z,4.47
2023-05-21T19:18:48.616Z,4.82
2023-05-21T19:21:20.917Z,4.85
2023-05-21T19:23:53.408Z,4.47
2023-05-21T19:26:24.439Z,4.70
2023-05-21T19:28:54.674Z,5.13
2023-05-21T19:31:25.225Z,4.38
2023-05-21T19:33:54.973Z,4.78
2023-05-21T19:36:23.603Z,4.93
2023-05-21T19:38:51.779Z,4.60
2023-05-21T19:41:21.575Z,4.97
2023-05-21T19:43:50.445Z,4.88
2023-05-21T19:46:20.488Z,5.07
2023-05-21T19:48:49.327Z,4.68
2023-05-21T19:51:19.822Z,5.00
2023-05-21T19:53:48.779Z,4.80
2023-05-21T19:56:17.319Z,5.65
2023-05-21T19:58:47.920Z,4.72
2023-05-21T20:01:17.492Z,4.80
2023-05-21T20:03:46.305Z,4.75
2023-05-21T20:06:15.710Z,4.78
2023-05-21T20:08:54.370Z,4.68
2023-05-21T20:11:26.056Z,5.22
2023-05-21T20:13:54.436Z,4.78
2023-05-21T20:16:23.322Z,4.32
2023-05-21T20:18:57.037Z,4.22
2023-05-21T20:21:25.761Z,4.60
2023-05-21T20:23:55.972Z,4.43
2023-05-21T20:26:26.362Z,4.32
2023-05-21T20:28:56.501Z,4.90
2023-05-21T20:31:27.563Z,5.03
2023-05-21T20:33:56.346Z,4.97
2023-05-21T20:36:25.872Z,4.60
2023-05-21T20:38:57.197Z,5.03
2023-05-21T20:41:25.585Z,5.13
2023-05-21T20:43:59.630Z,5.18
2023-05-21T20:46:29.327Z,5.13
2023-05-21T20:49:00.150Z,4.97
2023-05-21T20:51:28.492Z,4.75
2023-05-21T20:54:01.017Z,4.95
2023-05-21T20:56:41.555Z,5.75
2023-05-21T20:59:12.011Z,5.53
2023-05-21T21:01:40.751Z,5.05
2023-05-21T21:04:12.111Z,4.70
2023-05-21T21:06:42.410Z,5.03
2023-05-21T21:09:12.364Z,4.63
2023-05-21T21:11:40.457Z,4.78
2023-05-21T21:14:08.733Z,5.10
2023-05-21T21:16:38.388Z,4.60
2023-05-21T21:19:06.571Z,4.95
2023-05-21T21:21:34.682Z,4.60
2023-05-21T21:24:02.862Z,4.25
2023-05-21T21:26:35.256Z,4.78
2023-05-21T21:31:37.883Z,4.82
2023-05-21T21:34:09.186Z,4.55
2023-05-21T21:36:37.565Z,4.85
2023-05-21T21:39:06.384Z,4.53
2023-05-21T21:41:36.284Z,4.40
2023-05-21T21:44:06.120Z,4.20
2023-05-21T21:46:35.693Z,3.80
2023-05-21T21:49:06.551Z,4.50
2023-05-21T21:51:35.399Z,4.22
2023-05-21T21:54:05.246Z,4.68
2023-05-21T21:56:33.440Z,4.20
2023-05-21T21:59:03.239Z,4.50
2023-05-21T22:01:31.391Z,5.00
2023-05-21T22:04:00.825Z,4.40
2023-05-21T22:06:28.880Z,4.72
2023-05-21T22:08:57.246Z,4.28
2023-05-21T22:11:26.547Z,4.38
2023-05-21T22:13:56.179Z,4.90
2023-05-21T22:16:25.769Z,4.40
2023-05-21T22:18:54.216Z,4.20
2023-05-21T22:21:27.431Z,4.50
2023-05-21T22:23:55.593Z,4.50
2023-05-21T22:26:23.697Z,4.63
2023-05-21T22:28:52.320Z,4.53
2023-05-21T22:31:21.279Z,4.38
2023-05-21T22:33:50.683Z,4.38
2023-05-21T22:36:20.202Z,4.30
2023-05-21T22:38:48.664Z,4.65
2023-05-21T22:41:16.912Z,4.20
2023-05-21T22:43:45.226Z,4.45
2023-05-21T22:46:14.188Z,4.50
2023-05-21T22:48:45.196Z,4.30
2023-05-21T22:51:15.365Z,4.68
2023-05-21T22:53:43.649Z,4.57
2023-05-21T22:56:11.812Z,4.05
2023-05-21T22:58:40.227Z,5.13
2023-05-21T23:01:09.050Z,4.57
2023-05-21T23:03:37.496Z,4.00
2023-05-21T23:06:05.626Z,4.07
2023-05-21T23:08:35.717Z,4.50
2023-05-21T23:11:04.353Z,4.22
2023-05-21T23:13:34.063Z,3.67
2023-05-21T23:16:04.191Z,4.47
2023-05-21T23:18:35.359Z,4.40
2023-05-21T23:21:07.737Z,4.00
2023-05-21T23:23:38.322Z,4.93
2023-05-21T23:26:09.244Z,4.15
2023-05-21T23:28:38.729Z,4.25
2023-05-21T23:31:07.315Z,4.75
2023-05-21T23:33:35.610Z,4.93
2023-05-21T23:36:03.930Z,4.22
2023-05-21T23:38:32.269Z,4.43
2023-05-21T23:41:02.354Z,4.38
2023-05-21T23:43:30.824Z,5.18
2023-05-21T23:45:59.515Z,4.28
2023-05-21T23:48:28.545Z,4.80
2023-05-21T23:50:57.114Z,4.80
2023-05-21T23:53:25.952Z,4.13
2023-05-21T23:55:55.305Z,4.30
2023-05-21T23:58:25.691Z,4.30
